Terminal Aerodrome Forecast
Issued by NWS Wilmington, OH

Home | Current Version | Previous Version | Text Only | Print | Product List | Glossary On
Versions: 1 2 3 4 5 6 7 8 9 10 11 12 13 14 15 16 17 18 19 20 21 22 23 24 25 26 27 28 29
284
FTUS41 KILN 021120
TAFCMH
TAF
KCMH 021120Z 0212/0312 35006KT P6SM OVC005
      TEMPO 0212/0215 2SM BR
     FM021500 32006KT P6SM SCT010 OVC025
     FM021700 33006KT P6SM SCT030 BKN150
     FM030100 02007KT P6SM OVC040
      TEMPO 0308/0312 5SM BR SCT100=

USA.gov is the U.S. government's official web portal to all federal, state and local government web resources and services.